...

Zhengzanmei

这家伙很懒什么也没留下


2540

积分

467

排名

93

金币
排  名:
467
积  分:
2540
所属战队:
暂无
注册时间:
2025-11-14 19:43

解题记录

ID 题目名称 类型 积分 金币 解题时间
1 ezphp WEB 0 0 2026-04-27 21:02:43
2 ManyGigems WEB 0 0 2026-04-23 21:17:50
3 NotAnotherSQLi WEB 0 0 2026-04-23 21:10:14
4 BirdBox WEB 0 0 2026-04-23 21:02:29
5 Temple of Time MISC 0 0 2026-04-23 19:14:35
6 灵活奋斗 MISC 0 0 2026-04-23 18:56:25
7 Try2FindMe MISC 0 0 2026-04-23 18:46:11
8 limited MISC 0 0 2026-04-14 20:39:22
9 英雄联盟 MISC 0 0 2026-04-14 19:31:41
10 easy-pop WEB 0 0 2026-04-10 19:53:15
11 Science WEB 0 0 2026-04-10 19:24:33
12 Robots Rule WEB 0 0 2026-04-10 19:15:52
13 假笑男孩 MISC 0 0 2026-04-09 20:51:42
14 agentDNS MISC 0 0 2026-04-09 20:39:54
15 ezCap MISC 0 0 2026-04-09 20:32:52
16 lies MISC 0 0 2026-04-09 20:28:42
17 Sharing is caring MISC 0 0 2026-04-09 20:24:02
18 ItIsMath MISC 0 0 2026-04-08 20:47:03
19 baby-mix MISC 0 0 2026-04-08 20:18:00
20 important_notes MISC 0 0 2026-04-08 20:04:04
21 hills MISC 0 0 2026-04-08 19:57:06
22 File Uploader 1 WEB 0 0 2026-04-07 21:13:30
23 what are y0u uploading? WEB 0 0 2026-04-07 20:57:17
24 Upload_it_2 WEB 0 0 2026-04-07 20:49:37
25 Upload_it_1 WEB 0 0 2026-04-07 20:48:40
26 upload WEB 0 0 2026-04-07 20:42:05
27 uploader WEB 0 0 2026-04-07 19:44:32
28 EN-气泡 Crypto 15 2 2026-04-02 21:12:03
29 你懂我的乐谱吗? Crypto 30 3 2026-04-02 20:50:59
30 elytra MISC 0 0 2026-04-02 20:27:33
31 我们生活在南京-2 MISC 0 0 2026-04-02 20:22:47
32 Upload 2 WEB 0 0 2026-03-30 20:20:29
33 Whois WEB 0 0 2026-03-30 19:05:13
34 Python Pickle Unserializer WEB 30 3 2026-03-28 18:03:32
35 聪明的php WEB 25 2 2026-03-28 16:42:56
36 affine Crypto 30 1 2026-03-28 11:27:55
37 告诉你个秘密 Crypto 30 1 2026-03-28 11:26:17
38 Hide and Hide MISC 0 0 2026-03-28 10:57:05
39 DinoTrading MISC 0 0 2026-03-28 10:50:54
40 Haystack MISC 0 0 2026-03-28 09:54:44
41 Smurf MISC 0 0 2026-03-28 09:51:05
42 wildshark MISC 0 0 2026-03-28 09:44:17
43 wireshark MISC 0 0 2026-03-28 09:25:54
44 picoCTF MISC 0 0 2026-03-28 09:21:40
45 unserialize-Noteasy WEB 30 3 2026-03-27 21:01:03
46 sodirty WEB 30 5 2026-03-27 20:34:54
47 闪电十六鞭 WEB 30 5 2026-03-27 20:22:29
48 小山丘的秘密 Crypto 15 2 2026-03-26 20:49:52
49 Math&English Crypto 15 2 2026-03-26 20:31:22
50 你喜欢下棋吗 Crypto 15 2 2026-03-26 20:26:12
51 兔年大吉2 WEB 30 5 2026-03-26 19:13:23
52 newphp WEB 35 3 2026-03-25 21:30:17
53 文件上传 WEB 35 4 2026-03-25 20:15:44
54 字符?正则? WEB 30 3 2026-03-25 19:09:20
55 No one knows regex better than me WEB 25 5 2026-03-25 19:05:47
56 ezbypass WEB 25 4 2026-03-24 21:17:51
57 文件包含2 WEB 35 4 2026-03-24 21:08:18
58 B4nner_2 MISC 0 0 2026-03-24 21:06:27
59 B4nner MISC 0 0 2026-03-24 19:57:26
60 Jack the Paster MISC 0 0 2026-03-24 19:29:16
61 is__admin MISC 0 0 2026-03-24 18:49:21
62 cookies WEB 25 3 2026-03-23 21:24:14
63 login1 WEB 30 3 2026-03-23 21:06:51
64 login2 WEB 40 6 2026-03-23 20:59:09
65 Fibonatcp MISC 0 0 2026-03-23 20:20:45
66 babyPNG MISC 0 0 2026-03-23 19:32:22
67 weird-py MISC 0 0 2026-03-21 17:13:25
68 errorShell MISC 0 0 2026-03-21 17:08:28
69 we_will_rockyou MISC 0 0 2026-03-21 17:03:10
70 都过滤了 WEB 40 6 2026-03-21 15:34:36
71 Image Data MISC 0 0 2026-03-21 14:32:35
72 犯人留下了信息 MISC 0 0 2026-03-21 14:00:33
73 Hello word MISC 0 0 2026-03-21 13:57:25
74 cant-see-0x1 MISC 0 0 2026-03-21 11:22:36
75 cant-see-0x0 MISC 0 0 2026-03-21 11:19:13
76 简单的base MISC 0 0 2026-03-21 11:09:15
77 easy_hash Crypto 15 2 2026-03-21 10:10:39
78 一段新闻 Crypto 20 2 2026-03-21 09:43:42
79 来自宇宙的信号 Crypto 35 1 2026-03-21 09:23:32
80 Easy_Re Reverse 15 2 2026-03-21 09:13:35
81 简单加密 Crypto 20 1 2026-03-21 09:05:21
82 3-dewas MISC 0 0 2026-03-20 20:13:02
83 好像说太多了 MISC 0 0 2026-03-20 19:43:17
84 abstract_art MISC 0 0 2026-03-20 19:07:48
85 重重flag背后隐藏的秘密 MISC 0 0 2026-03-20 18:55:14
86 Crack it Crypto 30 1 2026-03-19 21:13:38
87 成绩查询 WEB 25 2 2026-03-19 20:43:45
88 -++-- MISC 0 0 2026-03-19 19:50:32
89 traffic MISC 0 0 2026-03-19 19:28:48
90 抄错的字符 Crypto 10 2 2026-03-19 19:15:54
91 easy_crypto Crypto 15 1 2026-03-19 19:10:38
92 Lipstick MISC 0 0 2026-03-19 18:59:06
93 一个普通的压缩包 MISC 0 0 2026-03-18 21:23:41
94 弗拉戈在哪里 MISC 0 0 2026-03-18 19:25:22
95 弗拉戈在哪里2 MISC 0 0 2026-03-18 19:21:29
96 一张含有信息的图片 MISC 0 0 2026-03-18 19:19:03
97 .!? Crypto 20 1 2026-03-18 19:13:40
98 散乱的密文 Crypto 20 1 2026-03-18 19:12:42
99 /.- Crypto 10 1 2026-03-18 19:06:38
100 [+-<>] Crypto 10 1 2026-03-18 19:04:24
101 聪明的小羊 Crypto 10 1 2026-03-18 19:03:35
102 速度要快 WEB 25 2 2026-03-17 19:40:27
103 秋名山车神 WEB 25 2 2026-03-17 19:00:24
104 强网先锋打野 MISC 0 0 2026-03-16 20:48:51
105 Crack Zip MISC 0 0 2026-03-16 19:58:52
106 TLS MISC 20 2 2026-03-16 19:49:02
107 超简单隐写 MISC 30 4 2026-03-16 19:16:24
108 blind_injection2 MISC 20 2 2026-03-13 21:29:22
109 404号 MISC 15 2 2026-03-13 20:59:39
110 社工-进阶收集 MISC 10 3 2026-03-13 20:44:30
111 USB 流量截取 MISC 15 2 2026-03-13 20:36:46
112 blind_injection MISC 15 2 2026-03-13 19:29:50
113 1和0的故事 MISC 10 3 2026-03-13 19:07:03
114 前女友 WEB 30 3 2025-12-16 20:45:46
115 game1 WEB 15 3 2025-12-16 20:39:34
116 需要管理员 WEB 35 3 2025-12-16 19:33:39
117 3-mirror MISC 0 0 2025-12-15 21:16:16
118 recover MISC 0 0 2025-12-15 21:03:35
119 misc1 MISC 0 0 2025-12-15 21:01:49
120 Upload 1 WEB 0 0 2025-12-15 20:56:18
121 Upload 0 WEB 0 0 2025-12-08 21:28:24
122 charlottesweb WEB 0 0 2025-12-08 21:04:51
123 filter-madness WEB 0 0 2025-12-08 20:58:04
124 baby lfi 2 WEB 0 0 2025-12-08 20:54:35
125 HEADache WEB 0 0 2025-12-08 20:49:19
126 nextGen 2 WEB 0 0 2025-12-08 20:40:12
127 challenge-creator WEB 0 0 2025-12-08 19:58:35
128 nextGen 1 WEB 0 0 2025-12-06 17:08:15
129 lfi WEB 0 0 2025-12-06 16:40:35
130 baby lfi WEB 0 0 2025-12-05 13:49:16
131 sqli-0x1 WEB 0 0 2025-12-05 13:47:43
132 post-the-get WEB 0 0 2025-12-05 13:37:31
133 my-first-sqli WEB 0 0 2025-12-05 13:20:39
134 Flask_FileUpload WEB 10 3 2025-12-04 20:35:12
135 inspect-me WEB 0 0 2025-12-04 19:14:10
136 Simple_SSTI_2 WEB 10 3 2025-12-03 20:14:14
137 Simple_SSTI_1 WEB 5 2 2025-12-03 19:59:25
138 点login咋没反应 WEB 40 6 2025-12-03 19:32:17
139 文件包含 WEB 20 2 2025-12-03 19:04:30
140 安慰奖 WEB 35 5 2025-12-02 21:25:57
141 file_get_contents WEB 30 3 2025-12-02 21:18:10
142 各种绕过哟 WEB 30 3 2025-12-02 20:58:36
143 Simple SQL injection WEB 10 2 2025-12-02 20:48:15
144 你从哪里来 WEB 30 3 2025-12-02 19:50:24
145 no select WEB 35 5 2025-12-02 19:44:33
146 Easy_vb Reverse 15 1 2025-12-01 21:29:38
147 把猪困在猪圈里 Crypto 15 2 2025-12-01 21:19:53
148 贝斯家族 Crypto 30 1 2025-12-01 20:59:43
149 这不是md5 Crypto 30 1 2025-12-01 20:58:48
150 简单取证1 MISC 10 2 2025-12-01 20:56:00
151 可爱的故事 MISC 15 2 2025-11-29 18:08:34
152 ping MISC 15 3 2025-11-29 17:59:20
153 铁子,来一道 MISC 20 3 2025-11-29 17:51:06
154 做个游戏 MISC 20 1 2025-11-29 16:20:13
155 color MISC 30 1 2025-11-29 10:28:56
156 程序员本地网站 WEB 30 3 2025-11-29 09:54:54
157 MD5 WEB 30 3 2025-11-29 09:03:13
158 想蹭网先解开密码 MISC 20 1 2025-11-28 21:20:32
159 赛博朋克 MISC 15 2 2025-11-28 20:32:24
160 bp WEB 15 2 2025-11-27 21:26:27
161 网站被黑 WEB 15 2 2025-11-27 20:56:06
162 源代码 WEB 20 2 2025-11-27 19:29:42
163 MISC 15 1 2025-11-27 19:14:41
164 简单套娃 MISC 15 1 2025-11-26 21:22:34
165 白哥的鸽子 MISC 15 1 2025-11-26 20:36:37
166 隐写2 MISC 15 1 2025-11-26 20:03:37
167 旋转跳跃 MISC 25 1 2025-11-26 19:22:02
168 入门逆向 Reverse 10 1 2025-11-25 21:27:11
169 简单的Include WEB 15 2 2025-11-25 21:19:14
170 图穷匕见 MISC 30 1 2025-11-25 19:20:52
171 split_all MISC 15 1 2025-11-24 20:34:57
172 神秘的文件 MISC 25 1 2025-11-24 19:52:37
173 薛定谔的猫 MISC 20 2 2025-11-22 16:38:39
174 where is flag MISC 20 2 2025-11-22 16:19:40
175 啊哒 MISC 10 1 2025-11-22 16:05:04
176 ok Crypto 10 1 2025-11-22 10:37:40
177 普通的二维码 MISC 25 1 2025-11-22 10:30:19
178 zip伪加密 MISC 20 1 2025-11-22 10:19:33
179 隐写3 MISC 20 1 2025-11-22 09:48:44
180 overflow PWN 20 4 2025-11-21 20:54:54
181 瑞士军刀 PWN 10 4 2025-11-21 20:47:30
182 shell WEB 25 3 2025-11-21 20:43:00
183 好像需要密码 WEB 20 2 2025-11-21 20:25:00
184 look MISC 15 1 2025-11-21 19:31:39
185 请攻击这个压缩包 MISC 20 3 2025-11-20 21:18:57
186 逆向入门 MISC 20 3 2025-11-20 21:12:48
187 闪的好快 MISC 15 1 2025-11-20 20:53:15
188 宽带信息泄露 MISC 15 1 2025-11-20 20:36:52
189 又一张图片,还单纯吗 MISC 15 1 2025-11-20 20:31:23
190 easy_nbt MISC 10 3 2025-11-20 19:58:53
191 Linux2 MISC 25 1 2025-11-20 19:47:32
192 多种方法解决 MISC 15 1 2025-11-20 19:33:47
193 眼见非实 MISC 10 1 2025-11-18 21:18:45
194 telnet MISC 10 1 2025-11-18 20:55:51
195 隐写 MISC 10 1 2025-11-18 20:41:55
196 linux MISC 15 1 2025-11-18 20:14:24
197 富强民主 MISC 15 1 2025-11-18 19:59:06
198 eval WEB 15 1 2025-11-18 19:21:53
199 本地管理员 WEB 15 2 2025-11-15 11:40:20
200 这是一张单纯的图片 MISC 10 1 2025-11-15 11:03:41
201 备份是个好习惯 WEB 20 2 2025-11-15 10:34:26
202 变量1 WEB 15 1 2025-11-15 10:15:02
203 矛盾 WEB 10 1 2025-11-15 09:30:51
204 source WEB 20 3 2025-11-15 09:27:55
205 POST WEB 10 1 2025-11-14 21:11:46
206 GET WEB 10 1 2025-11-14 21:06:08
207 头等舱 WEB 15 1 2025-11-14 21:00:17
208 你必须让他停下 WEB 10 1 2025-11-14 20:22:56
209 alert WEB 10 1 2025-11-14 20:13:34
210 计算器 WEB 10 1 2025-11-14 20:09:52
211 滑稽 WEB 10 1 2025-11-14 19:51:02
212 签到题 MISC 5 10 2025-11-14 19:45:37

暂无数据

    暂无数据

暂无数据

问题反馈